sensor_id;sensor_type;location;lat;lon;timestamp;P1;durP1;ratioP1;P2;durP2;ratioP2
12155;SDS011;6141;49.092;8.516;2023-04-24T00:01:21;2.53;;;1.33;;
12155;SDS011;6141;49.092;8.516;2023-04-24T00:03:54;1.50;;;1.10;;
12155;SDS011;6141;49.092;8.516;2023-04-24T00:06:22;2.23;;;1.30;;
12155;SDS011;6141;49.092;8.516;2023-04-24T00:08:51;3.40;;;1.10;;
12155;SDS011;6141;49.092;8.516;2023-04-24T00:11:19;2.10;;;1.00;;
12155;SDS011;6141;49.092;8.516;2023-04-24T00:13:47;2.77;;;1.10;;
12155;SDS011;6141;49.092;8.516;2023-04-24T00:16:16;1.97;;;1.10;;
12155;SDS011;6141;49.092;8.516;2023-04-24T00:18:44;2.23;;;1.17;;
12155;SDS011;6141;49.092;8.516;2023-04-24T00:21:16;2.53;;;1.10;;
12155;SDS011;6141;49.092;8.516;2023-04-24T00:23:45;1.43;;;0.90;;
12155;SDS011;6141;49.092;8.516;2023-04-24T00:26:13;2.00;;;0.90;;
12155;SDS011;6141;49.092;8.516;2023-04-24T00:28:42;2.47;;;1.03;;
12155;SDS011;6141;49.092;8.516;2023-04-24T00:31:11;2.30;;;1.10;;
12155;SDS011;6141;49.092;8.516;2023-04-24T00:33:41;1.63;;;1.07;;
12155;SDS011;6141;49.092;8.516;2023-04-24T00:36:10;2.03;;;1.00;;
12155;SDS011;6141;49.092;8.516;2023-04-24T00:38:39;1.47;;;0.93;;
12155;SDS011;6141;49.092;8.516;2023-04-24T00:41:08;1.20;;;0.87;;
12155;SDS011;6141;49.092;8.516;2023-04-24T00:43:36;4.83;;;1.20;;
12155;SDS011;6141;49.092;8.516;2023-04-24T00:46:05;2.33;;;1.03;;
12155;SDS011;6141;49.092;8.516;2023-04-24T00:48:35;1.70;;;0.90;;
12155;SDS011;6141;49.092;8.516;2023-04-24T00:51:05;1.80;;;1.00;;
12155;SDS011;6141;49.092;8.516;2023-04-24T00:53:33;2.13;;;1.00;;
12155;SDS011;6141;49.092;8.516;2023-04-24T00:56:05;2.90;;;1.00;;
12155;SDS011;6141;49.092;8.516;2023-04-24T00:58:33;1.67;;;1.03;;
12155;SDS011;6141;49.092;8.516;2023-04-24T01:01:02;2.40;;;1.17;;
12155;SDS011;6141;49.092;8.516;2023-04-24T01:03:34;1.33;;;0.80;;
12155;SDS011;6141;49.092;8.516;2023-04-24T01:06:05;2.57;;;1.00;;
12155;SDS011;6141;49.092;8.516;2023-04-24T01:08:34;2.67;;;1.10;;
12155;SDS011;6141;49.092;8.516;2023-04-24T01:11:05;2.63;;;1.00;;
12155;SDS011;6141;49.092;8.516;2023-04-24T01:13:33;3.80;;;1.00;;
12155;SDS011;6141;49.092;8.516;2023-04-24T01:16:02;2.07;;;0.80;;
12155;SDS011;6141;49.092;8.516;2023-04-24T01:18:34;0.70;;;0.70;;
12155;SDS011;6141;49.092;8.516;2023-04-24T01:21:02;1.53;;;0.93;;
12155;SDS011;6141;49.092;8.516;2023-04-24T01:23:33;1.27;;;0.90;;
12155;SDS011;6141;49.092;8.516;2023-04-24T01:26:02;0.93;;;0.80;;
12155;SDS011;6141;49.092;8.516;2023-04-24T01:28:31;4.40;;;1.10;;
12155;SDS011;6141;49.092;8.516;2023-04-24T01:31:00;1.70;;;0.90;;
12155;SDS011;6141;49.092;8.516;2023-04-24T01:33:28;2.17;;;1.00;;
12155;SDS011;6141;49.092;8.516;2023-04-24T01:35:57;2.60;;;1.20;;
12155;SDS011;6141;49.092;8.516;2023-04-24T01:38:26;2.63;;;0.90;;
12155;SDS011;6141;49.092;8.516;2023-04-24T01:40:57;2.00;;;1.00;;
12155;SDS011;6141;49.092;8.516;2023-04-24T01:43:26;1.77;;;0.90;;
12155;SDS011;6141;49.092;8.516;2023-04-24T01:45:57;1.33;;;0.90;;
12155;SDS011;6141;49.092;8.516;2023-04-24T01:48:25;2.37;;;1.00;;
12155;SDS011;6141;49.092;8.516;2023-04-24T01:50:54;2.40;;;1.00;;
12155;SDS011;6141;49.092;8.516;2023-04-24T01:53:25;1.53;;;0.87;;
12155;SDS011;6141;49.092;8.516;2023-04-24T01:55:53;1.83;;;0.93;;
12155;SDS011;6141;49.092;8.516;2023-04-24T01:58:25;1.87;;;1.10;;
12155;SDS011;6141;49.092;8.516;2023-04-24T02:00:56;2.37;;;0.93;;
12155;SDS011;6141;49.092;8.516;2023-04-24T02:03:26;2.60;;;1.10;;
12155;SDS011;6141;49.092;8.516;2023-04-24T02:05:57;2.47;;;0.80;;
12155;SDS011;6141;49.092;8.516;2023-04-24T02:08:25;1.23;;;1.00;;
12155;SDS011;6141;49.092;8.516;2023-04-24T02:10:53;2.77;;;1.00;;
12155;SDS011;6141;49.092;8.516;2023-04-24T02:13:23;6.47;;;1.10;;
12155;SDS011;6141;49.092;8.516;2023-04-24T02:15:55;1.57;;;1.00;;
12155;SDS011;6141;49.092;8.516;2023-04-24T02:18:25;2.00;;;1.00;;
12155;SDS011;6141;49.092;8.516;2023-04-24T02:20:54;1.60;;;0.90;;
12155;SDS011;6141;49.092;8.516;2023-04-24T02:23:24;2.37;;;1.20;;
12155;SDS011;6141;49.092;8.516;2023-04-24T02:25:56;1.30;;;1.03;;
12155;SDS011;6141;49.092;8.516;2023-04-24T02:28:25;2.10;;;1.00;;
12155;SDS011;6141;49.092;8.516;2023-04-24T02:30:58;2.23;;;0.83;;
12155;SDS011;6141;49.092;8.516;2023-04-24T02:33:28;2.27;;;1.10;;
12155;SDS011;6141;49.092;8.516;2023-04-24T02:35:57;3.13;;;1.00;;
12155;SDS011;6141;49.092;8.516;2023-04-24T02:38:26;1.53;;;1.10;;
12155;SDS011;6141;49.092;8.516;2023-04-24T02:40:54;1.87;;;0.97;;
12155;SDS011;6141;49.092;8.516;2023-04-24T02:43:25;2.07;;;0.90;;
12155;SDS011;6141;49.092;8.516;2023-04-24T02:45:53;1.07;;;0.90;;
12155;SDS011;6141;49.092;8.516;2023-04-24T02:48:24;1.50;;;0.90;;
12155;SDS011;6141;49.092;8.516;2023-04-24T02:50:53;2.57;;;1.30;;
12155;SDS011;6141;49.092;8.516;2023-04-24T02:53:21;1.30;;;1.00;;
12155;SDS011;6141;49.092;8.516;2023-04-24T02:55:50;2.13;;;1.00;;
12155;SDS011;6141;49.092;8.516;2023-04-24T02:58:21;2.10;;;0.90;;
12155;SDS011;6141;49.092;8.516;2023-04-24T03:00:53;4.43;;;1.27;;
12155;SDS011;6141;49.092;8.516;2023-04-24T03:03:22;2.13;;;1.00;;
12155;SDS011;6141;49.092;8.516;2023-04-24T03:05:53;2.23;;;0.93;;
12155;SDS011;6141;49.092;8.516;2023-04-24T03:08:21;1.77;;;1.03;;
12155;SDS011;6141;49.092;8.516;2023-04-24T03:10:51;1.50;;;1.00;;
12155;SDS011;6141;49.092;8.516;2023-04-24T03:13:20;1.23;;;0.97;;
12155;SDS011;6141;49.092;8.516;2023-04-24T03:15:49;2.30;;;1.20;;
12155;SDS011;6141;49.092;8.516;2023-04-24T03:18:17;2.13;;;1.13;;
12155;SDS011;6141;49.092;8.516;2023-04-24T03:20:48;1.93;;;1.17;;
12155;SDS011;6141;49.092;8.516;2023-04-24T03:23:20;1.93;;;1.43;;
12155;SDS011;6141;49.092;8.516;2023-04-24T03:25:48;3.37;;;1.20;;
12155;SDS011;6141;49.092;8.516;2023-04-24T03:28:19;3.13;;;1.40;;
12155;SDS011;6141;49.092;8.516;2023-04-24T03:30:58;2.67;;;1.50;;
12155;SDS011;6141;49.092;8.516;2023-04-24T03:33:33;1.60;;;1.50;;
12155;SDS011;6141;49.092;8.516;2023-04-24T03:36:02;2.13;;;1.60;;
12155;SDS011;6141;49.092;8.516;2023-04-24T03:38:41;2.80;;;1.83;;
12155;SDS011;6141;49.092;8.516;2023-04-24T03:41:29;2.17;;;1.90;;
12155;SDS011;6141;49.092;8.516;2023-04-24T03:44:21;2.50;;;1.80;;
12155;SDS011;6141;49.092;8.516;2023-04-24T03:46:50;1.90;;;1.70;;
12155;SDS011;6141;49.092;8.516;2023-04-24T03:49:21;1.80;;;1.70;;
12155;SDS011;6141;49.092;8.516;2023-04-24T03:51:50;2.20;;;1.60;;
12155;SDS011;6141;49.092;8.516;2023-04-24T03:54:24;3.27;;;1.80;;
12155;SDS011;6141;49.092;8.516;2023-04-24T03:56:53;2.43;;;1.70;;
12155;SDS011;6141;49.092;8.516;2023-04-24T03:59:24;3.23;;;1.77;;
12155;SDS011;6141;49.092;8.516;2023-04-24T04:02:09;3.10;;;1.87;;
12155;SDS011;6141;49.092;8.516;2023-04-24T04:04:38;2.77;;;2.00;;
12155;SDS011;6141;49.092;8.516;2023-04-24T04:07:07;2.23;;;1.77;;
12155;SDS011;6141;49.092;8.516;2023-04-24T04:09:37;3.00;;;1.80;;
12155;SDS011;6141;49.092;8.516;2023-04-24T04:12:05;3.93;;;2.33;;
12155;SDS011;6141;49.092;8.516;2023-04-24T04:14:35;4.33;;;2.00;;
12155;SDS011;6141;49.092;8.516;2023-04-24T04:17:04;2.37;;;1.90;;
12155;SDS011;6141;49.092;8.516;2023-04-24T04:19:32;2.20;;;1.77;;
12155;SDS011;6141;49.092;8.516;2023-04-24T04:22:02;1.63;;;1.53;;
12155;SDS011;6141;49.092;8.516;2023-04-24T04:24:43;2.00;;;1.53;;
12155;SDS011;6141;49.092;8.516;2023-04-24T04:27:13;1.77;;;1.30;;
12155;SDS011;6141;49.092;8.516;2023-04-24T04:29:49;2.00;;;1.43;;
12155;SDS011;6141;49.092;8.516;2023-04-24T04:32:19;2.33;;;1.63;;
12155;SDS011;6141;49.092;8.516;2023-04-24T04:34:48;1.50;;;1.40;;
12155;SDS011;6141;49.092;8.516;2023-04-24T04:37:22;2.40;;;1.50;;
12155;SDS011;6141;49.092;8.516;2023-04-24T04:40:03;3.10;;;1.60;;
12155;SDS011;6141;49.092;8.516;2023-04-24T04:42:39;2.43;;;1.50;;
12155;SDS011;6141;49.092;8.516;2023-04-24T04:45:11;2.57;;;1.63;;
12155;SDS011;6141;49.092;8.516;2023-04-24T04:47:59;3.90;;;1.77;;
12155;SDS011;6141;49.092;8.516;2023-04-24T04:50:30;3.10;;;1.70;;
12155;SDS011;6141;49.092;8.516;2023-04-24T04:53:04;2.43;;;1.73;;
12155;SDS011;6141;49.092;8.516;2023-04-24T04:55:38;2.00;;;1.70;;
12155;SDS011;6141;49.092;8.516;2023-04-24T04:58:13;2.10;;;1.90;;
12155;SDS011;6141;49.092;8.516;2023-04-24T05:00:43;2.23;;;1.80;;
12155;SDS011;6141;49.092;8.516;2023-04-24T05:03:23;1.80;;;1.60;;
12155;SDS011;6141;49.092;8.516;2023-04-24T05:05:59;2.97;;;1.87;;
12155;SDS011;6141;49.092;8.516;2023-04-24T05:08:32;3.67;;;2.20;;
12155;SDS011;6141;49.092;8.516;2023-04-24T05:11:06;1.80;;;1.70;;
12155;SDS011;6141;49.092;8.516;2023-04-24T05:13:36;2.40;;;1.97;;
12155;SDS011;6141;49.092;8.516;2023-04-24T05:16:16;2.73;;;2.10;;
12155;SDS011;6141;49.092;8.516;2023-04-24T05:18:44;2.40;;;2.20;;
12155;SDS011;6141;49.092;8.516;2023-04-24T05:21:17;3.57;;;2.43;;
12155;SDS011;6141;49.092;8.516;2023-04-24T05:23:50;2.43;;;2.13;;
12155;SDS011;6141;49.092;8.516;2023-04-24T05:26:52;3.37;;;2.47;;
12155;SDS011;6141;49.092;8.516;2023-04-24T05:29:27;3.17;;;2.47;;
12155;SDS011;6141;49.092;8.516;2023-04-24T05:31:57;2.07;;;1.90;;
12155;SDS011;6141;49.092;8.516;2023-04-24T05:34:28;3.97;;;2.30;;
12155;SDS011;6141;49.092;8.516;2023-04-24T05:36:57;3.53;;;2.30;;
12155;SDS011;6141;49.092;8.516;2023-04-24T05:39:25;2.70;;;2.10;;
12155;SDS011;6141;49.092;8.516;2023-04-24T05:41:55;4.13;;;2.10;;
12155;SDS011;6141;49.092;8.516;2023-04-24T05:44:26;4.10;;;2.80;;
12155;SDS011;6141;49.092;8.516;2023-04-24T05:46:54;4.00;;;2.53;;
12155;SDS011;6141;49.092;8.516;2023-04-24T05:49:23;3.30;;;2.57;;
12155;SDS011;6141;49.092;8.516;2023-04-24T05:51:54;3.37;;;2.80;;
12155;SDS011;6141;49.092;8.516;2023-04-24T05:54:22;2.37;;;2.17;;
12155;SDS011;6141;49.092;8.516;2023-04-24T05:56:51;2.73;;;2.13;;
12155;SDS011;6141;49.092;8.516;2023-04-24T05:59:33;2.93;;;2.37;;
12155;SDS011;6141;49.092;8.516;2023-04-24T06:02:02;2.30;;;2.07;;
12155;SDS011;6141;49.092;8.516;2023-04-24T06:04:31;2.80;;;2.50;;
12155;SDS011;6141;49.092;8.516;2023-04-24T06:07:01;5.30;;;2.10;;
12155;SDS011;6141;49.092;8.516;2023-04-24T06:09:30;3.60;;;2.10;;
12155;SDS011;6141;49.092;8.516;2023-04-24T06:11:58;1.90;;;1.70;;
12155;SDS011;6141;49.092;8.516;2023-04-24T06:14:37;3.23;;;2.10;;
12155;SDS011;6141;49.092;8.516;2023-04-24T06:17:16;2.83;;;2.23;;
12155;SDS011;6141;49.092;8.516;2023-04-24T06:19:47;2.87;;;1.63;;
12155;SDS011;6141;49.092;8.516;2023-04-24T06:22:17;2.70;;;1.70;;
12155;SDS011;6141;49.092;8.516;2023-04-24T06:24:46;1.67;;;1.57;;
12155;SDS011;6141;49.092;8.516;2023-04-24T06:27:15;4.23;;;1.80;;
12155;SDS011;6141;49.092;8.516;2023-04-24T06:29:46;1.63;;;1.53;;
12155;SDS011;6141;49.092;8.516;2023-04-24T06:32:21;3.00;;;2.00;;
12155;SDS011;6141;49.092;8.516;2023-04-24T06:34:50;1.63;;;1.53;;
12155;SDS011;6141;49.092;8.516;2023-04-24T06:37:20;3.73;;;2.17;;
12155;SDS011;6141;49.092;8.516;2023-04-24T06:39:49;2.07;;;1.87;;
12155;SDS011;6141;49.092;8.516;2023-04-24T06:42:19;2.30;;;1.90;;
12155;SDS011;6141;49.092;8.516;2023-04-24T06:44:50;2.23;;;1.60;;
12155;SDS011;6141;49.092;8.516;2023-04-24T06:47:21;3.10;;;1.90;;
12155;SDS011;6141;49.092;8.516;2023-04-24T06:49:50;2.80;;;2.00;;
12155;SDS011;6141;49.092;8.516;2023-04-24T06:52:19;5.20;;;2.03;;
12155;SDS011;6141;49.092;8.516;2023-04-24T06:54:47;2.20;;;1.87;;
12155;SDS011;6141;49.092;8.516;2023-04-24T06:57:18;2.00;;;1.80;;
12155;SDS011;6141;49.092;8.516;2023-04-24T06:59:48;2.30;;;1.87;;
12155;SDS011;6141;49.092;8.516;2023-04-24T07:02:18;2.90;;;1.93;;
12155;SDS011;6141;49.092;8.516;2023-04-24T07:04:47;2.13;;;1.73;;
12155;SDS011;6141;49.092;8.516;2023-04-24T07:07:16;2.90;;;2.03;;
12155;SDS011;6141;49.092;8.516;2023-04-24T07:09:44;2.20;;;2.00;;
12155;SDS011;6141;49.092;8.516;2023-04-24T07:12:13;2.90;;;1.90;;
12155;SDS011;6141;49.092;8.516;2023-04-24T07:14:43;2.00;;;1.90;;
12155;SDS011;6141;49.092;8.516;2023-04-24T07:17:13;2.00;;;1.80;;
12155;SDS011;6141;49.092;8.516;2023-04-24T07:19:42;3.17;;;1.77;;
12155;SDS011;6141;49.092;8.516;2023-04-24T07:22:11;4.30;;;2.07;;
12155;SDS011;6141;49.092;8.516;2023-04-24T07:24:43;2.10;;;1.80;;
12155;SDS011;6141;49.092;8.516;2023-04-24T07:27:12;2.53;;;1.70;;
12155;SDS011;6141;49.092;8.516;2023-04-24T07:29:42;2.07;;;1.57;;
12155;SDS011;6141;49.092;8.516;2023-04-24T07:32:12;3.57;;;1.60;;
12155;SDS011;6141;49.092;8.516;2023-04-24T07:34:41;3.23;;;2.00;;
12155;SDS011;6141;49.092;8.516;2023-04-24T07:37:10;2.67;;;1.70;;
12155;SDS011;6141;49.092;8.516;2023-04-24T07:39:38;5.47;;;1.87;;
12155;SDS011;6141;49.092;8.516;2023-04-24T07:42:07;3.73;;;1.90;;
12155;SDS011;6141;49.092;8.516;2023-04-24T07:44:39;2.73;;;1.80;;
12155;SDS011;6141;49.092;8.516;2023-04-24T07:47:07;3.40;;;1.80;;
12155;SDS011;6141;49.092;8.516;2023-04-24T07:49:37;2.70;;;1.90;;
12155;SDS011;6141;49.092;8.516;2023-04-24T07:52:06;3.83;;;2.00;;
12155;SDS011;6141;49.092;8.516;2023-04-24T07:54:35;3.50;;;2.07;;
12155;SDS011;6141;49.092;8.516;2023-04-24T07:57:04;3.57;;;1.50;;
12155;SDS011;6141;49.092;8.516;2023-04-24T07:59:34;2.30;;;1.70;;
12155;SDS011;6141;49.092;8.516;2023-04-24T08:02:03;2.37;;;1.53;;
12155;SDS011;6141;49.092;8.516;2023-04-24T08:04:34;1.90;;;1.30;;
12155;SDS011;6141;49.092;8.516;2023-04-24T08:07:05;3.43;;;1.60;;
12155;SDS011;6141;49.092;8.516;2023-04-24T08:09:34;2.90;;;1.40;;
12155;SDS011;6141;49.092;8.516;2023-04-24T08:12:02;2.73;;;1.60;;
12155;SDS011;6141;49.092;8.516;2023-04-24T08:14:31;1.27;;;1.10;;
12155;SDS011;6141;49.092;8.516;2023-04-24T08:17:00;1.57;;;1.10;;
12155;SDS011;6141;49.092;8.516;2023-04-24T08:19:29;5.00;;;1.30;;
12155;SDS011;6141;49.092;8.516;2023-04-24T08:21:58;1.20;;;1.10;;
12155;SDS011;6141;49.092;8.516;2023-04-24T08:24:28;2.83;;;1.30;;
12155;SDS011;6141;49.092;8.516;2023-04-24T08:26:57;2.00;;;1.23;;
12155;SDS011;6141;49.092;8.516;2023-04-24T08:29:25;4.03;;;1.67;;
12155;SDS011;6141;49.092;8.516;2023-04-24T08:31:54;2.20;;;1.13;;
12155;SDS011;6141;49.092;8.516;2023-04-24T08:34:22;2.60;;;1.30;;
12155;SDS011;6141;49.092;8.516;2023-04-24T08:36:51;2.60;;;1.50;;
12155;SDS011;6141;49.092;8.516;2023-04-24T08:39:20;1.73;;;1.33;;
12155;SDS011;6141;49.092;8.516;2023-04-24T08:41:50;2.47;;;1.33;;
12155;SDS011;6141;49.092;8.516;2023-04-24T08:44:20;4.10;;;1.50;;
12155;SDS011;6141;49.092;8.516;2023-04-24T08:46:48;2.03;;;1.40;;
12155;SDS011;6141;49.092;8.516;2023-04-24T08:49:22;5.00;;;1.63;;
12155;SDS011;6141;49.092;8.516;2023-04-24T08:51:53;1.30;;;1.20;;
12155;SDS011;6141;49.092;8.516;2023-04-24T08:54:24;2.43;;;1.30;;
12155;SDS011;6141;49.092;8.516;2023-04-24T08:56:55;2.20;;;1.47;;
12155;SDS011;6141;49.092;8.516;2023-04-24T08:59:29;2.43;;;1.27;;
12155;SDS011;6141;49.092;8.516;2023-04-24T09:01:57;2.13;;;1.20;;
12155;SDS011;6141;49.092;8.516;2023-04-24T09:04:28;2.53;;;1.40;;
12155;SDS011;6141;49.092;8.516;2023-04-24T09:06:57;2.17;;;1.40;;
12155;SDS011;6141;49.092;8.516;2023-04-24T09:09:27;3.50;;;1.47;;
12155;SDS011;6141;49.092;8.516;2023-04-24T09:12:00;2.67;;;1.77;;
12155;SDS011;6141;49.092;8.516;2023-04-24T09:14:32;3.63;;;1.70;;
12155;SDS011;6141;49.092;8.516;2023-04-24T09:17:02;3.17;;;1.53;;
12155;SDS011;6141;49.092;8.516;2023-04-24T09:19:31;2.87;;;1.50;;
12155;SDS011;6141;49.092;8.516;2023-04-24T09:21:59;3.13;;;1.77;;
12155;SDS011;6141;49.092;8.516;2023-04-24T09:24:34;2.63;;;1.97;;
12155;SDS011;6141;49.092;8.516;2023-04-24T09:27:04;2.93;;;1.80;;
12155;SDS011;6141;49.092;8.516;2023-04-24T09:29:36;3.80;;;1.80;;
12155;SDS011;6141;49.092;8.516;2023-04-24T09:32:19;2.70;;;2.00;;
12155;SDS011;6141;49.092;8.516;2023-04-24T09:35:04;2.10;;;1.90;;
12155;SDS011;6141;49.092;8.516;2023-04-24T09:37:38;5.73;;;2.03;;
12155;SDS011;6141;49.092;8.516;2023-04-24T09:40:08;4.93;;;2.57;;
12155;SDS011;6141;49.092;8.516;2023-04-24T09:42:43;5.77;;;2.40;;
12155;SDS011;6141;49.092;8.516;2023-04-24T09:45:13;3.13;;;2.60;;
12155;SDS011;6141;49.092;8.516;2023-04-24T09:47:42;9.37;;;2.93;;
12155;SDS011;6141;49.092;8.516;2023-04-24T09:50:12;4.47;;;2.90;;
12155;SDS011;6141;49.092;8.516;2023-04-24T09:52:45;3.47;;;2.60;;
12155;SDS011;6141;49.092;8.516;2023-04-24T09:55:16;3.53;;;2.83;;
12155;SDS011;6141;49.092;8.516;2023-04-24T09:57:49;4.77;;;2.70;;
12155;SDS011;6141;49.092;8.516;2023-04-24T10:00:20;2.50;;;2.30;;
12155;SDS011;6141;49.092;8.516;2023-04-24T10:02:50;2.70;;;2.20;;
12155;SDS011;6141;49.092;8.516;2023-04-24T10:05:23;2.50;;;2.30;;
12155;SDS011;6141;49.092;8.516;2023-04-24T10:07:57;2.87;;;2.50;;
12155;SDS011;6141;49.092;8.516;2023-04-24T10:10:29;4.63;;;2.50;;
12155;SDS011;6141;49.092;8.516;2023-04-24T10:13:00;3.77;;;2.60;;
12155;SDS011;6141;49.092;8.516;2023-04-24T10:15:30;4.00;;;2.67;;
12155;SDS011;6141;49.092;8.516;2023-04-24T10:17:59;3.23;;;2.40;;
12155;SDS011;6141;49.092;8.516;2023-04-24T10:20:28;2.57;;;2.37;;
12155;SDS011;6141;49.092;8.516;2023-04-24T10:22:58;3.30;;;2.20;;
12155;SDS011;6141;49.092;8.516;2023-04-24T10:25:28;4.80;;;2.10;;
12155;SDS011;6141;49.092;8.516;2023-04-24T10:28:00;3.97;;;2.73;;
12155;SDS011;6141;49.092;8.516;2023-04-24T10:30:30;4.80;;;2.40;;
12155;SDS011;6141;49.092;8.516;2023-04-24T10:33:02;4.27;;;2.10;;
12155;SDS011;6141;49.092;8.516;2023-04-24T10:35:32;3.80;;;2.10;;
12155;SDS011;6141;49.092;8.516;2023-04-24T10:38:05;2.40;;;1.90;;
12155;SDS011;6141;49.092;8.516;2023-04-24T10:40:37;2.53;;;1.80;;
12155;SDS011;6141;49.092;8.516;2023-04-24T10:43:08;2.50;;;1.80;;
12155;SDS011;6141;49.092;8.516;2023-04-24T10:45:38;3.83;;;2.20;;
12155;SDS011;6141;49.092;8.516;2023-04-24T10:48:07;3.17;;;2.37;;
12155;SDS011;6141;49.092;8.516;2023-04-24T10:50:44;4.13;;;2.13;;
12155;SDS011;6141;49.092;8.516;2023-04-24T10:53:14;4.13;;;2.50;;
12155;SDS011;6141;49.092;8.516;2023-04-24T10:55:45;3.17;;;2.57;;
12155;SDS011;6141;49.092;8.516;2023-04-24T10:58:18;6.33;;;2.63;;
12155;SDS011;6141;49.092;8.516;2023-04-24T11:00:56;3.27;;;2.33;;
12155;SDS011;6141;49.092;8.516;2023-04-24T11:03:27;4.03;;;3.00;;
12155;SDS011;6141;49.092;8.516;2023-04-24T11:05:58;4.03;;;2.70;;
12155;SDS011;6141;49.092;8.516;2023-04-24T11:08:29;6.10;;;2.60;;
12155;SDS011;6141;49.092;8.516;2023-04-24T11:11:01;4.90;;;2.80;;
12155;SDS011;6141;49.092;8.516;2023-04-24T11:16:41;4.60;;;2.83;;
12155;SDS011;6141;49.092;8.516;2023-04-24T11:19:20;3.20;;;2.90;;
12155;SDS011;6141;49.092;8.516;2023-04-24T11:21:55;3.20;;;2.70;;
12155;SDS011;6141;49.092;8.516;2023-04-24T11:24:30;5.57;;;2.60;;
12155;SDS011;6141;49.092;8.516;2023-04-24T11:27:05;3.83;;;2.23;;
12155;SDS011;6141;49.092;8.516;2023-04-24T11:29:39;4.03;;;2.87;;
12155;SDS011;6141;49.092;8.516;2023-04-24T11:32:25;3.57;;;3.27;;
12155;SDS011;6141;49.092;8.516;2023-04-24T11:34:55;4.33;;;3.10;;
12155;SDS011;6141;49.092;8.516;2023-04-24T11:37:26;4.13;;;3.30;;
12155;SDS011;6141;49.092;8.516;2023-04-24T11:39:57;3.33;;;3.03;;
12155;SDS011;6141;49.092;8.516;2023-04-24T11:42:28;4.57;;;2.93;;
12155;SDS011;6141;49.092;8.516;2023-04-24T11:45:01;4.43;;;3.30;;
12155;SDS011;6141;49.092;8.516;2023-04-24T11:47:32;6.53;;;2.67;;
12155;SDS011;6141;49.092;8.516;2023-04-24T11:50:01;3.17;;;2.60;;
12155;SDS011;6141;49.092;8.516;2023-04-24T11:52:33;10.30;;;3.67;;
12155;SDS011;6141;49.092;8.516;2023-04-24T11:55:06;4.97;;;3.10;;
12155;SDS011;6141;49.092;8.516;2023-04-24T11:57:35;4.50;;;2.97;;
12155;SDS011;6141;49.092;8.516;2023-04-24T12:00:04;3.33;;;2.80;;
12155;SDS011;6141;49.092;8.516;2023-04-24T12:02:39;4.63;;;2.70;;
12155;SDS011;6141;49.092;8.516;2023-04-24T12:05:08;2.83;;;2.40;;
12155;SDS011;6141;49.092;8.516;2023-04-24T12:07:40;6.03;;;3.27;;
12155;SDS011;6141;49.092;8.516;2023-04-24T12:10:10;4.47;;;3.00;;
12155;SDS011;6141;49.092;8.516;2023-04-24T12:12:39;3.87;;;2.93;;
12155;SDS011;6141;49.092;8.516;2023-04-24T12:15:08;2.77;;;2.57;;
12155;SDS011;6141;49.092;8.516;2023-04-24T12:17:41;4.37;;;2.77;;
12155;SDS011;6141;49.092;8.516;2023-04-24T12:20:10;4.10;;;2.67;;
12155;SDS011;6141;49.092;8.516;2023-04-24T12:22:43;3.23;;;2.70;;
12155;SDS011;6141;49.092;8.516;2023-04-24T12:25:13;4.23;;;2.73;;
12155;SDS011;6141;49.092;8.516;2023-04-24T12:27:54;4.13;;;2.97;;
12155;SDS011;6141;49.092;8.516;2023-04-24T12:30:44;3.20;;;2.90;;
12155;SDS011;6141;49.092;8.516;2023-04-24T12:33:21;5.47;;;3.20;;
12155;SDS011;6141;49.092;8.516;2023-04-24T12:35:51;4.37;;;2.90;;
12155;SDS011;6141;49.092;8.516;2023-04-24T12:38:21;3.50;;;2.90;;
12155;SDS011;6141;49.092;8.516;2023-04-24T12:41:01;4.97;;;3.00;;
12155;SDS011;6141;49.092;8.516;2023-04-24T12:43:30;3.43;;;2.90;;
12155;SDS011;6141;49.092;8.516;2023-04-24T12:45:59;3.47;;;2.70;;
12155;SDS011;6141;49.092;8.516;2023-04-24T12:48:29;4.10;;;2.87;;
12155;SDS011;6141;49.092;8.516;2023-04-24T12:50:58;3.20;;;2.90;;
12155;SDS011;6141;49.092;8.516;2023-04-24T12:53:28;3.27;;;2.97;;
12155;SDS011;6141;49.092;8.516;2023-04-24T12:55:57;5.47;;;2.97;;
12155;SDS011;6141;49.092;8.516;2023-04-24T12:58:26;4.67;;;3.20;;
12155;SDS011;6141;49.092;8.516;2023-04-24T13:00:54;4.13;;;3.40;;
12155;SDS011;6141;49.092;8.516;2023-04-24T13:03:23;4.93;;;3.13;;
12155;SDS011;6141;49.092;8.516;2023-04-24T13:05:53;5.33;;;3.77;;
12155;SDS011;6141;49.092;8.516;2023-04-24T13:08:22;6.20;;;3.33;;
12155;SDS011;6141;49.092;8.516;2023-04-24T13:10:51;4.43;;;3.03;;
12155;SDS011;6141;49.092;8.516;2023-04-24T13:13:20;4.20;;;3.13;;
12155;SDS011;6141;49.092;8.516;2023-04-24T13:15:49;6.07;;;2.90;;
12155;SDS011;6141;49.092;8.516;2023-04-24T13:18:18;4.03;;;2.67;;
12155;SDS011;6141;49.092;8.516;2023-04-24T13:20:49;3.53;;;2.63;;
12155;SDS011;6141;49.092;8.516;2023-04-24T13:23:19;4.10;;;2.97;;
12155;SDS011;6141;49.092;8.516;2023-04-24T13:25:48;2.80;;;2.47;;
12155;SDS011;6141;49.092;8.516;2023-04-24T13:28:16;3.27;;;2.47;;
12155;SDS011;6141;49.092;8.516;2023-04-24T13:30:44;3.23;;;2.17;;
12155;SDS011;6141;49.092;8.516;2023-04-24T13:33:17;3.60;;;2.20;;
12155;SDS011;6141;49.092;8.516;2023-04-24T13:35:46;3.73;;;2.27;;
12155;SDS011;6141;49.092;8.516;2023-04-24T13:38:15;3.13;;;2.40;;
12155;SDS011;6141;49.092;8.516;2023-04-24T13:40:45;3.67;;;2.37;;
12155;SDS011;6141;49.092;8.516;2023-04-24T13:43:14;2.93;;;2.40;;
12155;SDS011;6141;49.092;8.516;2023-04-24T13:45:43;4.97;;;2.63;;
12155;SDS011;6141;49.092;8.516;2023-04-24T13:48:11;2.77;;;2.23;;
12155;SDS011;6141;49.092;8.516;2023-04-24T13:50:45;3.97;;;2.60;;
12155;SDS011;6141;49.092;8.516;2023-04-24T13:53:15;3.77;;;3.00;;
12155;SDS011;6141;49.092;8.516;2023-04-24T13:55:45;4.03;;;3.13;;
12155;SDS011;6141;49.092;8.516;2023-04-24T13:58:14;4.77;;;2.70;;
12155;SDS011;6141;49.092;8.516;2023-04-24T14:00:42;3.33;;;2.50;;
12155;SDS011;6141;49.092;8.516;2023-04-24T14:03:11;3.33;;;2.63;;
12155;SDS011;6141;49.092;8.516;2023-04-24T14:05:40;2.93;;;2.63;;
12155;SDS011;6141;49.092;8.516;2023-04-24T14:08:09;5.40;;;3.17;;
12155;SDS011;6141;49.092;8.516;2023-04-24T14:10:40;5.27;;;3.00;;
12155;SDS011;6141;49.092;8.516;2023-04-24T14:13:12;5.07;;;3.00;;
12155;SDS011;6141;49.092;8.516;2023-04-24T14:15:41;3.23;;;2.47;;
12155;SDS011;6141;49.092;8.516;2023-04-24T14:18:09;2.50;;;2.30;;
12155;SDS011;6141;49.092;8.516;2023-04-24T14:20:38;3.73;;;2.37;;
12155;SDS011;6141;49.092;8.516;2023-04-24T14:23:07;3.67;;;2.53;;
12155;SDS011;6141;49.092;8.516;2023-04-24T14:25:36;3.13;;;2.60;;
12155;SDS011;6141;49.092;8.516;2023-04-24T14:28:06;6.60;;;2.57;;
12155;SDS011;6141;49.092;8.516;2023-04-24T14:30:36;4.37;;;2.57;;
12155;SDS011;6141;49.092;8.516;2023-04-24T14:33:07;3.80;;;2.80;;
12155;SDS011;6141;49.092;8.516;2023-04-24T14:35:35;3.30;;;2.30;;
12155;SDS011;6141;49.092;8.516;2023-04-24T14:38:04;3.10;;;2.70;;
12155;SDS011;6141;49.092;8.516;2023-04-24T14:40:33;3.07;;;2.53;;
12155;SDS011;6141;49.092;8.516;2023-04-24T14:43:23;5.30;;;2.90;;
12155;SDS011;6141;49.092;8.516;2023-04-24T14:45:53;3.93;;;2.40;;
12155;SDS011;6141;49.092;8.516;2023-04-24T14:48:22;4.17;;;2.80;;
12155;SDS011;6141;49.092;8.516;2023-04-24T14:50:53;3.57;;;2.70;;
12155;SDS011;6141;49.092;8.516;2023-04-24T14:53:21;3.07;;;2.60;;
12155;SDS011;6141;49.092;8.516;2023-04-24T14:55:49;3.10;;;2.20;;
12155;SDS011;6141;49.092;8.516;2023-04-24T14:58:18;2.80;;;2.13;;
12155;SDS011;6141;49.092;8.516;2023-04-24T15:00:47;3.40;;;2.70;;
12155;SDS011;6141;49.092;8.516;2023-04-24T15:03:22;2.73;;;2.40;;
12155;SDS011;6141;49.092;8.516;2023-04-24T15:05:53;3.17;;;2.10;;
12155;SDS011;6141;49.092;8.516;2023-04-24T15:08:22;2.70;;;2.30;;
12155;SDS011;6141;49.092;8.516;2023-04-24T15:10:51;2.63;;;2.13;;
12155;SDS011;6141;49.092;8.516;2023-04-24T15:13:20;5.13;;;2.70;;
12155;SDS011;6141;49.092;8.516;2023-04-24T15:15:50;4.73;;;2.33;;
12155;SDS011;6141;49.092;8.516;2023-04-24T15:18:18;2.37;;;2.10;;
12155;SDS011;6141;49.092;8.516;2023-04-24T15:20:48;2.77;;;2.17;;
12155;SDS011;6141;49.092;8.516;2023-04-24T15:23:16;3.23;;;2.13;;
12155;SDS011;6141;49.092;8.516;2023-04-24T15:25:48;2.60;;;1.93;;